Flight Track Log - Related Links

Times and Time Zones

All times are in EST time to prevent confusion due to time zone crossing. See the UPS416 flight status page for this flight to view local times or setup timezone preferences in your user account.

Time Position Orientation Groundspeed Altitude Reporting Facility
EST Latitude Longitude Course Direction KTS MPH feet Rate Location/Type
Sun 07:48:57 AM 25.7833 -80.2808 114° Southeast 184 212 700  Level Miami Center
Sun 07:50:15 AM 25.7497 -80.1969 114° Southeast 263 303 2,900 1,883 Climbing Miami Center
Sun 07:51:14 AM 25.7306 -80.1203 105° East 280 322 5,000 2,754 Climbing Miami Center
Sun 07:51:16 AM 25.7244 -80.1156 145° Southeast 288 331 5,700 2,100 Climbing Miami Center
Sun 07:52:14 AM 25.7117 -80.0344 100° East 327 376 7,100 1,983 Climbing Miami Center
Sun 07:53:14 AM 25.6908 -79.9278 102° East 342 394 9,600 2,550 Climbing Miami Center
Sun 07:54:14 AM 25.6661 -79.8119 103° East 362 417 12,200 2,500 Climbing Miami Center
Sun 07:55:14 AM 25.6414 -79.6939 103° East 381 438 14,600 2,350 Climbing Miami Center
Sun 07:56:14 AM 25.6144 -79.5689 103° East 394 453 16,900 2,100 Climbing Miami Center
Sun 07:57:14 AM 25.5833 -79.4439 105° East 414 476 18,800 1,900 Climbing Miami Center
Sun 07:58:14 AM 25.4886 -79.3567 140° Southeast 414 476 20,700 1,800 Climbing Miami Center
Sun 07:59:14 AM 25.3728 -79.2897 152° Southeast 438 504 22,400 1,800 Climbing Miami Center
Sun 08:00:14 AM 25.2589 -79.2186 151° Southeast 451 519 24,300 1,800 Climbing Miami Center
Sun 08:01:14 AM 25.1450 -79.1500 151° Southeast 462 532 26,000 1,600 Climbing Miami Center
Sun 08:02:14 AM 25.0292 -79.0767 150° Southeast 468 539 27,500 1,450 Climbing Miami Center
Sun 08:03:14 AM 24.9092 -79.0058 152° Southeast 474 545 28,900 850 Climbing Miami Center
Sun 08:04:14 AM 24.7889 -78.9372 153° Southeast 479 551 29,200 950 Climbing Miami Center
Sun 08:05:14 AM 24.6686 -78.8619 150° Southeast 479 551 30,800 900 Climbing Miami Center
Sun 08:06:14 AM 24.5483 -78.7917 152° Southeast 479 551 31,000 100 Climbing Miami Center
Sun 08:07:14 AM 24.4303 -78.7189 151° Southeast 486 559 31,000  Level Miami Center
Sun 08:08:14 AM 24.3078 -78.6464 152° Southeast 491 565 31,000  Level Miami Center
Sun 08:09:14 AM 24.1894 -78.5764 152° Southeast 491 565 31,000  Level Miami Center
Sun 08:10:14 AM 24.0692 -78.5019 151° Southeast 491 565 31,000  Level Miami Center
Sun 08:12:00 AM 23.8745 -78.3515 145° Southeast  Level Estimated
Sun 08:19:00 AM 23.1019 -77.7596 145° Southeast  Level Estimated
Sun 08:20:00 AM 22.9913 -77.6756 145° Southeast  Level Estimated
Sun 08:21:00 AM 22.8807 -77.5917 145° Southeast  Level Estimated
Sun 08:22:00 AM 22.7701 -77.5080 145° Southeast  Level Estimated
Sun 08:23:00 AM 22.6594 -77.4244 145° Southeast  Level Estimated
Sun 08:24:00 AM 22.5487 -77.3410 145° Southeast  Level Estimated
Sun 08:25:00 AM 22.4379 -77.2577 145° Southeast  Level Estimated
Sun 08:26:00 AM 22.3271 -77.1745 145° Southeast  Level Estimated
Sun 08:27:00 AM 22.2162 -77.0914 145° Southeast  Level Estimated
Sun 08:28:00 AM 22.1053 -77.0085 145° Southeast  Level Estimated
Sun 08:29:00 AM 21.9944 -76.9257 145° Southeast  Level Estimated
Sun 08:30:00 AM 21.8834 -76.8431 145° Southeast  Level Estimated
Sun 08:31:00 AM 21.7724 -76.7605 145° Southeast  Level Estimated
Sun 08:32:00 AM 21.6613 -76.6781 145° Southeast  Level Estimated
Sun 08:33:00 AM 21.5502 -76.5958 145° Southeast  Level Estimated
Sun 08:34:00 AM 21.4390 -76.5137 145° Southeast  Level Estimated
Sun 08:35:00 AM 21.3278 -76.4317 145° Southeast  Level Estimated
Sun 08:36:00 AM 21.2166 -76.3498 146° Southeast  Level Estimated
Sun 08:37:00 AM 21.1053 -76.2680 146° Southeast  Level Estimated
Sun 08:38:00 AM 20.9940 -76.1863 146° Southeast  Level Estimated
Sun 08:39:00 AM 20.8827 -76.1048 146° Southeast  Level Estimated
Sun 08:40:00 AM 20.7713 -76.0234 146° Southeast  Level Estimated
Sun 08:41:00 AM 20.6599 -75.9421 146° Southeast  Level Estimated
Sun 08:42:00 AM 20.5484 -75.8609 146° Southeast  Level Estimated
Sun 08:43:00 AM 20.4369 -75.7799 146° Southeast  Level Estimated
Sun 08:44:00 AM 20.3254 -75.6989 146° Southeast  Level Estimated
Sun 08:45:00 AM 20.2138 -75.6181 146° Southeast  Level Estimated
Sun 08:46:00 AM 20.1022 -75.5374 146° Southeast  Level Estimated
Sun 08:47:00 AM 19.9905 -75.4568 146° Southeast  Level Estimated
Sun 08:48:00 AM 19.8789 -75.3763 146° Southeast  Level Estimated
Sun 08:49:00 AM 19.7672 -75.2960 146° Southeast  Level Estimated
Sun 08:50:00 AM 19.6554 -75.2157 146° Southeast  Level Estimated
Sun 08:51:00 AM 19.5436 -75.1356 146° Southeast  Level Estimated
Sun 08:52:00 AM 19.4318 -75.0555 146° Southeast  Level Estimated
Sun 08:53:00 AM 19.3199 -74.9756 146° Southeast  Level Estimated
Sun 08:54:00 AM 19.2080 -74.8958 146° Southeast  Level Estimated
Sun 08:55:00 AM 19.0961 -74.8161 146° Southeast  Level Estimated
Sun 08:56:00 AM 18.9841 -74.7365 146° Southeast  Level Estimated
Sun 08:57:00 AM 18.8721 -74.6570 146° Southeast  Level Estimated
Sun 08:58:00 AM 18.7601 -74.5777 146° Southeast  Level Estimated
Sun 08:59:00 AM 18.6480 -74.4984 146° Southeast  Level Estimated
Sun 09:00:00 AM 18.5359 -74.4192 146° Southeast  Level Estimated
Sun 09:01:00 AM 18.4238 -74.3401 146° Southeast  Level Estimated
Sun 09:02:00 AM 18.3116 -74.2612 146° Southeast  Level Estimated
Sun 09:03:00 AM 18.1994 -74.1823 146° Southeast  Level Estimated
Sun 09:04:00 AM 18.0872 -74.1036 146° Southeast  Level Estimated
Sun 09:05:00 AM 17.9750 -74.0249 146° Southeast  Level Estimated
Sun 09:06:00 AM 17.8627 -73.9464 146° Southeast  Level Estimated
Sun 09:07:00 AM 17.7503 -73.8679 146° Southeast  Level Estimated
Sun 09:08:00 AM 17.6380 -73.7895 146° Southeast  Level Estimated
Sun 09:09:00 AM 17.5256 -73.7113 146° Southeast  Level Estimated
Sun 09:10:00 AM 17.4132 -73.6331 146° Southeast  Level Estimated
Sun 09:11:00 AM 17.3007 -73.5550 146° Southeast  Level Estimated
Sun 09:12:00 AM 17.1882 -73.4771 146° Southeast  Level Estimated
Sun 09:13:00 AM 17.0757 -73.3992 147° Southeast  Level Estimated
Sun 09:14:00 AM 16.9632 -73.3214 147° Southeast  Level Estimated
Sun 09:15:00 AM 16.8506 -73.2437 147° Southeast  Level Estimated
Sun 09:16:00 AM 16.7380 -73.1661 147° Southeast  Level Estimated
Sun 09:17:00 AM 16.6254 -73.0886 147° Southeast  Level Estimated
Sun 09:18:00 AM 16.5128 -73.0112 147° Southeast  Level Estimated
Sun 09:19:00 AM 16.4001 -72.9338 147° Southeast  Level Estimated
Sun 09:20:00 AM 16.2874 -72.8566 147° Southeast  Level Estimated
Sun 09:21:00 AM 16.1746 -72.7794 147° Southeast  Level Estimated
Sun 09:22:00 AM 16.0619 -72.7024 147° Southeast  Level Estimated
Sun 09:23:00 AM 15.9491 -72.6254 147° Southeast  Level Estimated
Sun 09:24:00 AM 15.8363 -72.5485 147° Southeast  Level Estimated
Sun 09:25:00 AM 15.7234 -72.4717 147° Southeast  Level Estimated
Sun 09:26:00 AM 15.6105 -72.3950 147° Southeast  Level Estimated
Sun 09:27:00 AM 15.4976 -72.3184 147° Southeast  Level Estimated
Sun 09:28:00 AM 15.3847 -72.2418 147° Southeast  Level Estimated
Sun 09:29:00 AM 15.2718 -72.1654 147° Southeast  Level Estimated
Sun 09:30:00 AM 15.1588 -72.0890 147° Southeast  Level Estimated
Sun 09:31:00 AM 15.0458 -72.0127 147° Southeast  Level Estimated
Sun 09:32:00 AM 14.9327 -71.9365 147° Southeast  Level Estimated
Sun 09:33:00 AM 14.8197 -71.8603 147° Southeast  Level Estimated
Sun 09:34:00 AM 14.7066 -71.7843 147° Southeast  Level Estimated
Sun 09:35:00 AM 14.5935 -71.7083 147° Southeast  Level Estimated
Sun 09:36:00 AM 14.4804 -71.6324 147° Southeast  Level Estimated
Sun 09:37:00 AM 14.3672 -71.5566 147° Southeast  Level Estimated
Sun 09:38:00 AM 14.2541 -71.4808 147° Southeast  Level Estimated
Sun 09:39:00 AM 14.1409 -71.4051 147° Southeast  Level Estimated
Sun 09:40:00 AM 14.0276 -71.3295 147° Southeast  Level Estimated
Sun 09:41:00 AM 13.9144 -71.2540 147° Southeast  Level Estimated
Sun 09:42:00 AM 13.8011 -71.1786 147° Southeast  Level Estimated
Sun 09:43:00 AM 13.6878 -71.1032 147° Southeast  Level Estimated
Sun 09:44:00 AM 13.5745 -71.0279 147° Southeast  Level Estimated
Sun 09:45:00 AM 13.4612 -70.9527 147° Southeast  Level Estimated
Sun 09:46:00 AM 13.3478 -70.8775 147° Southeast  Level Estimated
Sun 09:47:00 AM 13.2344 -70.8024 147° Southeast  Level Estimated
Sun 09:48:00 AM 13.1210 -70.7274 147° Southeast  Level Estimated
Sun 09:49:00 AM 13.0076 -70.6524 147° Southeast  Level Estimated
Sun 09:50:00 AM 12.8941 -70.5776 147° Southeast  Level Estimated
Sun 09:51:00 AM 12.7807 -70.5027 147° Southeast  Level Estimated
Sun 09:52:00 AM 12.6672 -70.4280 147° Southeast  Level Estimated
Sun 09:53:00 AM 12.5536 -70.3533 147° Southeast  Level Estimated
Sun 09:54:00 AM 12.4401 -70.2787 147° Southeast  Level Estimated
Sun 09:55:00 AM 12.3266 -70.2041 147° Southeast  Level Estimated
Sun 09:56:00 AM 12.2130 -70.1297 147° Southeast  Level Estimated
Sun 09:57:00 AM 12.0994 -70.0552 147° Southeast  Level Estimated
Sun 09:58:00 AM 11.9858 -69.9809 147° Southeast  Level Estimated
Sun 09:59:00 AM 11.8722 -69.9066 147° Southeast  Level Estimated
Sun 10:00:00 AM 11.7585 -69.8324 147° Southeast  Level Estimated
Sun 10:01:00 AM 11.6448 -69.7582 147° Southeast  Level Estimated
Sun 10:02:00 AM 11.5312 -69.6841 147° Southeast  Level Estimated
Sun 10:03:00 AM 11.4174 -69.6100 147° Southeast  Level Estimated
Sun 10:04:00 AM 11.3037 -69.5360 147° Southeast  Level Estimated
Sun 10:05:00 AM 11.1900 -69.4621 147° Southeast  Level Estimated
Sun 10:06:00 AM 11.0762 -69.3882 147° Southeast  Level Estimated
Sun 10:07:00 AM 10.9624 -69.3144 148° Southeast  Level Estimated
Sun 10:08:00 AM 10.8486 -69.2406 148° Southeast  Level Estimated
Sun 10:09:00 AM 10.7348 -69.1669 148° Southeast  Level Estimated
Sun 10:10:00 AM 10.6210 -69.0933 148° Southeast  Level Estimated
Sun 10:11:00 AM 10.5071 -69.0197 148° Southeast  Level Estimated
Sun 10:12:00 AM 10.3933 -68.9462 148° Southeast  Level Estimated
Sun 10:13:00 AM 10.2794 -68.8727 148° Southeast  Level Estimated
Sun 10:14:00 AM 10.1655 -68.7992 148° Southeast  Level Estimated
Sun 10:15:00 AM 10.0515 -68.7259 148° Southeast  Level Estimated
Sun 10:16:00 AM 9.9376 -68.6525 148° Southeast  Level Estimated
Sun 10:17:00 AM 9.8237 -68.5792 148° Southeast  Level Estimated
Sun 10:18:00 AM 9.7097 -68.5060 148° Southeast  Level Estimated
Sun 10:19:00 AM 9.5957 -68.4328 148° Southeast  Level Estimated
Sun 10:20:00 AM 9.4817 -68.3597 148° Southeast  Level Estimated
Sun 10:21:00 AM 9.3677 -68.2866 148° Southeast  Level Estimated
Sun 10:22:00 AM 9.2537 -68.2136 148° Southeast  Level Estimated
Sun 10:23:00 AM 9.1396 -68.1406 148° Southeast  Level Estimated
Sun 10:24:00 AM 9.0256 -68.0677 148° Southeast  Level Estimated
Sun 10:25:00 AM 8.9115 -67.9948 148° Southeast  Level Estimated
Sun 10:26:00 AM 8.7974 -67.9219 148° Southeast  Level Estimated
Sun 10:27:00 AM 8.6833 -67.8491 148° Southeast  Level Estimated
Sun 10:28:00 AM 8.5692 -67.7764 148° Southeast  Level Estimated
Sun 10:29:00 AM 8.4551 -67.7037 148° Southeast  Level Estimated
Sun 10:30:00 AM 8.3409 -67.6310 148° Southeast  Level Estimated
Sun 10:31:00 AM 8.2268 -67.5583 148° Southeast  Level Estimated
Sun 10:32:00 AM 8.1126 -67.4858 148° Southeast  Level Estimated
Sun 10:33:00 AM 7.9984 -67.4132 148° Southeast  Level Estimated
Sun 10:34:00 AM 7.8842 -67.3407 148° Southeast  Level Estimated
Sun 10:35:00 AM 7.7700 -67.2682 148° Southeast  Level Estimated
Sun 10:36:00 AM 7.6558 -67.1958 148° Southeast  Level Estimated
Sun 10:37:00 AM 7.5416 -67.1234 148° Southeast  Level Estimated
Sun 10:38:00 AM 7.4273 -67.0511 148° Southeast  Level Estimated
Sun 10:39:00 AM 7.3131 -66.9788 148° Southeast  Level Estimated
Sun 10:40:00 AM 7.1988 -66.9065 148° Southeast  Level Estimated
Sun 10:41:00 AM 7.0845 -66.8342 148° Southeast  Level Estimated
Sun 10:42:00 AM 6.9703 -66.7620 148° Southeast  Level Estimated
Sun 10:43:00 AM 6.8559 -66.6899 148° Southeast  Level Estimated
Sun 10:44:00 AM 6.7416 -66.6177 148° Southeast  Level Estimated
Sun 10:45:00 AM 6.6273 -66.5456 148° Southeast  Level Estimated
Sun 10:46:00 AM 6.5130 -66.4736 148° Southeast  Level Estimated
Sun 10:47:00 AM 6.3987 -66.4016 148° Southeast  Level Estimated
Sun 10:48:00 AM 6.2843 -66.3296 148° Southeast  Level Estimated
Sun 10:49:00 AM 6.1699 -66.2576 148° Southeast  Level Estimated
Sun 10:50:00 AM 6.0556 -66.1856 148° Southeast  Level Estimated
Sun 10:51:00 AM 5.9412 -66.1137 148° Southeast  Level Estimated
Sun 10:52:00 AM 5.8268 -66.0418 148° Southeast  Level Estimated
Sun 10:53:00 AM 5.7124 -65.9700 148° Southeast  Level Estimated
Sun 10:54:00 AM 5.5980 -65.8982 148° Southeast  Level Estimated
Sun 10:55:00 AM 5.4836 -65.8264 148° Southeast  Level Estimated
Sun 10:56:00 AM 5.3692 -65.7546 148° Southeast  Level Estimated
Sun 10:57:00 AM 5.2547 -65.6829 148° Southeast  Level Estimated
Sun 10:58:00 AM 5.1403 -65.6112 148° Southeast  Level Estimated
Sun 10:59:00 AM 5.0258 -65.5395 148° Southeast  Level Estimated
Sun 11:00:00 AM 4.9114 -65.4678 148° Southeast  Level Estimated
Sun 11:01:00 AM 4.7969 -65.3962 148° Southeast  Level Estimated
Sun 11:02:00 AM 4.6824 -65.3246 148° Southeast  Level Estimated
Sun 11:03:00 AM 4.5680 -65.2530 148° Southeast  Level Estimated
Sun 11:04:00 AM 4.4535 -65.1814 148° Southeast  Level Estimated
Sun 11:05:00 AM 4.3390 -65.1099 148° Southeast  Level Estimated
Sun 11:06:00 AM 4.2245 -65.0384 148° Southeast  Level Estimated
Sun 11:07:00 AM 4.1100 -64.9669 148° Southeast  Level Estimated
Sun 11:08:00 AM 3.9955 -64.8954 148° Southeast  Level Estimated
Sun 11:09:00 AM 3.8809 -64.8240 148° Southeast  Level Estimated
Sun 11:10:00 AM 3.7664 -64.7525 148° Southeast  Level Estimated
Sun 11:11:00 AM 3.6519 -64.6811 148° Southeast  Level Estimated
Sun 11:12:00 AM 3.5374 -64.6097 148° Southeast  Level Estimated
Sun 11:13:00 AM 3.4228 -64.5383 148° Southeast  Level Estimated
Sun 11:14:00 AM 3.3083 -64.4669 148° Southeast  Level Estimated
Sun 11:15:00 AM 3.1937 -64.3956 148° Southeast  Level Estimated
Sun 11:16:00 AM 3.0792 -64.3243 148° Southeast  Level Estimated
Sun 11:17:00 AM 2.9646 -64.2529 148° Southeast  Level Estimated
Sun 11:18:00 AM 2.8500 -64.1816 148° Southeast  Level Estimated
Sun 11:19:00 AM 2.7355 -64.1104 148° Southeast  Level Estimated
Sun 11:20:00 AM 2.6209 -64.0391 148° Southeast  Level Estimated
Sun 11:21:00 AM 2.5063 -63.9678 148° Southeast  Level Estimated
Sun 11:22:00 AM 2.3917 -63.8966 148° Southeast  Level Estimated
Sun 11:23:00 AM 2.2771 -63.8253 148° Southeast  Level Estimated
Sun 11:24:00 AM 2.1625 -63.7541 148° Southeast  Level Estimated
Sun 11:25:00 AM 2.0480 -63.6829 148° Southeast  Level Estimated
Sun 11:26:00 AM 1.9334 -63.6117 148° Southeast  Level Estimated
Sun 11:27:00 AM 1.8188 -63.5405 148° Southeast  Level Estimated
Sun 11:28:00 AM 1.7042 -63.4693 148° Southeast  Level Estimated
Sun 11:29:00 AM 1.5896 -63.3981 148° Southeast  Level Estimated
Sun 11:30:00 AM 1.4749 -63.3269 148° Southeast  Level Estimated
Sun 11:31:00 AM 1.3603 -63.2558 148° Southeast  Level Estimated
Sun 11:32:00 AM 1.2457 -63.1846 148° Southeast  Level Estimated
Sun 11:33:00 AM 1.1311 -63.1134 148° Southeast  Level Estimated
Sun 11:34:00 AM 1.0165 -63.0423 148° Southeast  Level Estimated
Sun 11:35:00 AM 0.9019 -62.9712 148° Southeast  Level Estimated
Sun 11:36:00 AM 0.7873 -62.9000 148° Southeast  Level Estimated
Sun 11:37:00 AM 0.6726 -62.8289 148° Southeast  Level Estimated
Sun 11:38:00 AM 0.5580 -62.7578 148° Southeast  Level Estimated
Sun 11:39:00 AM 0.4434 -62.6866 148° Southeast  Level Estimated
Sun 11:40:00 AM 0.3288 -62.6155 148° Southeast  Level Estimated
Sun 11:41:00 AM 0.2142 -62.5444 148° Southeast  Level Estimated
Sun 11:42:00 AM 0.0996 -62.4733 148° Southeast  Level Estimated
Sun 11:43:00 AM -0.0151 -62.4021 148° Southeast  Level Estimated
Sun 11:44:00 AM -0.1297 -62.3310 148° Southeast  Level Estimated
Sun 11:45:00 AM -0.2443 -62.2599 148° Southeast  Level Estimated
Sun 11:46:00 AM -0.3589 -62.1888 148° Southeast  Level Estimated
Sun 11:47:00 AM -0.4735 -62.1177 148° Southeast  Level Estimated
Sun 11:48:00 AM -0.5882 -62.0465 148° Southeast  Level Estimated
Sun 11:49:00 AM -0.7028 -61.9754 148° Southeast  Level Estimated
Sun 11:50:00 AM -0.8174 -61.9043 148° Southeast  Level Estimated
Sun 11:51:00 AM -0.9320 -61.8331 148° Southeast  Level Estimated
Sun 11:52:00 AM -1.0467 -61.7620 148° Southeast  Level Estimated
Sun 11:53:00 AM -1.1613 -61.6908 148° Southeast  Level Estimated
Sun 11:54:00 AM -1.2759 -61.6197 148° Southeast  Level Estimated
Sun 11:55:00 AM -1.3905 -61.5485 148° Southeast  Level Estimated
Sun 11:56:00 AM -1.5051 -61.4774 148° Southeast  Level Estimated
Sun 11:57:00 AM -1.6197 -61.4062 148° Southeast  Level Estimated
Sun 11:58:00 AM -1.7343 -61.3350 148° Southeast  Level Estimated
Sun 11:59:00 AM -1.8489 -61.2638 148° Southeast  Level Estimated
Sun 12:00:00 PM -1.9635 -61.1926 148° Southeast  Level Estimated
Sun 12:01:00 PM -2.0781 -61.1214 148° Southeast  Level Estimated
Sun 12:02:00 PM -2.1927 -61.0502 148° Southeast  Level Estimated
Sun 12:03:00 PM -2.3073 -60.9790 148° Southeast  Level Estimated
Sun 12:04:00 PM -2.4219 -60.9077 148° Southeast  Level Estimated
Sun 12:05:00 PM -2.5364 -60.8365 148° Southeast  Level Estimated
Sun 12:06:00 PM -2.6510 -60.7652 148° Southeast  Level Estimated
Sun 12:07:00 PM -2.7656 -60.6939 148° Southeast  Level Estimated
Sun 12:08:00 PM -2.8802 -60.6226 148° Southeast  Level Estimated
Sun 12:09:00 PM -2.9947 -60.5513 148° Southeast  Level Estimated
Sun 12:10:00 PM -3.1093 -60.4800 148° Southeast  Level Estimated
Sun 12:11:00 PM -3.2239 -60.4087 148° Southeast  Level Estimated
Sun 12:12:00 PM -3.3384 -60.3373 148° Southeast  Level Estimated
Sun 12:13:00 PM -3.4529 -60.2659 148° Southeast  Level Estimated
Sun 12:14:00 PM -3.5675 -60.1945 148° Southeast  Level Estimated
Sun 12:15:00 PM -3.6820 -60.1231 148° Southeast  Level Estimated
Sun 12:16:00 PM -3.7965 -60.0517 148° Southeast  Level Estimated
Sun 12:17:00 PM -3.9111 -59.9803 148° Southeast  Level Estimated
Sun 12:18:00 PM -4.0256 -59.9088 148° Southeast  Level Estimated
Sun 12:19:00 PM -4.1401 -59.8373 148° Southeast  Level Estimated
Sun 12:20:00 PM -4.2546 -59.7658 148° Southeast  Level Estimated
Sun 12:21:00 PM -4.3691 -59.6943 148° Southeast  Level Estimated
Sun 12:22:00 PM -4.4836 -59.6227 148° Southeast  Level Estimated
Sun 12:23:00 PM -4.5981 -59.5512 148° Southeast  Level Estimated
Sun 12:24:00 PM -4.7125 -59.4796 148° Southeast  Level Estimated
Sun 12:25:00 PM -4.8270 -59.4080 148° Southeast  Level Estimated
Sun 12:26:00 PM -4.9415 -59.3363 148° Southeast  Level Estimated
Sun 12:27:00 PM -5.0559 -59.2646 148° Southeast  Level Estimated
Sun 12:28:00 PM -5.1704 -59.1930 148° Southeast  Level Estimated
Sun 12:29:00 PM -5.2848 -59.1212 148° Southeast  Level Estimated
Sun 12:30:00 PM -5.3992 -59.0495 148° Southeast  Level Estimated
Sun 12:31:00 PM -5.5137 -58.9777 148° Southeast  Level Estimated
Sun 12:32:00 PM -5.6281 -58.9059 148° Southeast  Level Estimated
Sun 12:33:00 PM -5.7425 -58.8341 148° Southeast  Level Estimated
Sun 12:34:00 PM -5.8569 -58.7622 148° Southeast  Level Estimated
Sun 12:35:00 PM -5.9713 -58.6904 148° Southeast  Level Estimated
Sun 12:36:00 PM -6.0856 -58.6185 148° Southeast  Level Estimated
Sun 12:37:00 PM -6.2000 -58.5465 148° Southeast  Level Estimated
Sun 12:38:00 PM -6.3144 -58.4745 148° Southeast  Level Estimated
Sun 12:39:00 PM -6.4287 -58.4025 148° Southeast  Level Estimated
Sun 12:40:00 PM -6.5430 -58.3305 148° Southeast  Level Estimated
Sun 12:41:00 PM -6.6574 -58.2584 148° Southeast  Level Estimated
Sun 12:42:00 PM -6.7717 -58.1863 148° Southeast  Level Estimated
Sun 12:43:00 PM -6.8860 -58.1142 148° Southeast  Level Estimated
Sun 12:44:00 PM -7.0003 -58.0420 148° Southeast  Level Estimated
Sun 12:45:00 PM -7.1146 -57.9698 148° Southeast  Level Estimated
Sun 12:46:00 PM -7.2288 -57.8975 148° Southeast  Level Estimated
Sun 12:47:00 PM -7.3431 -57.8252 148° Southeast  Level Estimated
Sun 12:48:00 PM -7.4574 -57.7529 148° Southeast  Level Estimated
Sun 12:49:00 PM -7.5716 -57.6805 148° Southeast  Level Estimated
Sun 12:50:00 PM -7.6858 -57.6082 148° Southeast  Level Estimated
Sun 12:51:00 PM -7.8000 -57.5357 148° Southeast  Level Estimated
Sun 12:52:00 PM -7.9142 -57.4632 148° Southeast  Level Estimated
Sun 12:53:00 PM -8.0284 -57.3907 148° Southeast  Level Estimated
Sun 12:54:00 PM -8.1426 -57.3181 148° Southeast  Level Estimated
Sun 12:55:00 PM -8.2568 -57.2455 148° Southeast  Level Estimated
Sun 12:56:00 PM -8.3709 -57.1729 148° Southeast  Level Estimated
Sun 12:57:00 PM -8.4851 -57.1002 148° Southeast  Level Estimated
Sun 12:58:00 PM -8.5992 -57.0275 148° Southeast  Level Estimated
Sun 12:59:00 PM -8.7133 -56.9547 148° Southeast  Level Estimated
Sun 01:00:00 PM -8.8274 -56.8819 148° Southeast  Level Estimated
Sun 01:01:00 PM -8.9415 -56.8091 148° Southeast  Level Estimated
Sun 01:02:00 PM -9.0555 -56.7362 148° Southeast  Level Estimated
Sun 01:03:00 PM -9.1696 -56.6632 148° Southeast  Level Estimated
Sun 01:04:00 PM -9.2836 -56.5902 148° Southeast  Level Estimated
Sun 01:05:00 PM -9.3976 -56.5172 148° Southeast  Level Estimated
Sun 01:06:00 PM -9.5117 -56.4441 148° Southeast  Level Estimated
Sun 01:07:00 PM -9.6257 -56.3709 148° Southeast  Level Estimated
Sun 01:08:00 PM -9.7396 -56.2977 148° Southeast  Level Estimated
Sun 01:09:00 PM -9.8536 -56.2245 148° Southeast  Level Estimated
Sun 01:10:00 PM -9.9675 -56.1512 148° Southeast  Level Estimated
Sun 01:11:00 PM -10.0815 -56.0779 148° Southeast  Level Estimated
Sun 01:12:00 PM -10.1954 -56.0045 148° Southeast  Level Estimated
Sun 01:13:00 PM -10.3093 -55.9310 148° Southeast  Level Estimated
Sun 01:14:00 PM -10.4232 -55.8575 148° Southeast  Level Estimated
Sun 01:15:00 PM -10.5370 -55.7840 148° Southeast  Level Estimated
Sun 01:16:00 PM -10.6509 -55.7104 148° Southeast  Level Estimated
Sun 01:17:00 PM -10.7647 -55.6367 148° Southeast  Level Estimated
Sun 01:18:00 PM -10.8785 -55.5630 148° Southeast  Level Estimated
Sun 01:19:00 PM -10.9923 -55.4892 148° Southeast  Level Estimated
Sun 01:20:00 PM -11.1061 -55.4154 148° Southeast  Level Estimated
Sun 01:21:00 PM -11.2199 -55.3415 148° Southeast  Level Estimated
Sun 01:22:00 PM -11.3336 -55.2675 147° Southeast  Level Estimated
Sun 01:23:00 PM -11.4473 -55.1935 147° Southeast  Level Estimated
Sun 01:24:00 PM -11.5610 -55.1194 147° Southeast  Level Estimated
Sun 01:25:00 PM -11.6747 -55.0453 147° Southeast  Level Estimated
Sun 01:26:00 PM -11.7884 -54.9711 147° Southeast  Level Estimated
Sun 01:27:00 PM -11.9021 -54.8969 147° Southeast  Level Estimated
Sun 01:28:00 PM -12.0157 -54.8226 147° Southeast  Level Estimated
Sun 01:29:00 PM -12.1293 -54.7482 147° Southeast  Level Estimated
Sun 01:30:00 PM -12.2429 -54.6738 147° Southeast  Level Estimated
Sun 01:31:00 PM -12.3565 -54.5993 147° Southeast  Level Estimated
Sun 01:32:00 PM -12.4700 -54.5247 147° Southeast  Level Estimated
Sun 01:33:00 PM -12.5835 -54.4501 147° Southeast  Level Estimated
Sun 01:34:00 PM -12.6970 -54.3754 147° Southeast  Level Estimated
Sun 01:35:00 PM -12.8105 -54.3006 147° Southeast  Level Estimated
Sun 01:36:00 PM -12.9240 -54.2258 147° Southeast  Level Estimated
Sun 01:37:00 PM -13.0374 -54.1509 147° Southeast  Level Estimated
Sun 01:38:00 PM -13.1509 -54.0759 147° Southeast  Level Estimated
Sun 01:39:00 PM -13.2643 -54.0009 147° Southeast  Level Estimated
Sun 01:40:00 PM -13.3776 -53.9257 147° Southeast  Level Estimated
Sun 01:41:00 PM -13.4910 -53.8506 147° Southeast  Level Estimated
Sun 01:42:00 PM -13.6043 -53.7753 147° Southeast  Level Estimated
Sun 01:43:00 PM -13.7176 -53.7000 147° Southeast  Level Estimated
Sun 01:44:00 PM -13.8309 -53.6246 147° Southeast  Level Estimated
Sun 01:45:00 PM -13.9442 -53.5491 147° Southeast  Level Estimated
Sun 01:46:00 PM -14.0574 -53.4736 147° Southeast  Level Estimated
Sun 01:47:00 PM -14.1707 -53.3980 147° Southeast  Level Estimated
Sun 01:48:00 PM -14.2839 -53.3223 147° Southeast  Level Estimated
Sun 01:49:00 PM -14.3970 -53.2465 147° Southeast  Level Estimated
Sun 01:50:00 PM -14.5102 -53.1707 147° Southeast  Level Estimated
Sun 01:51:00 PM -14.6233 -53.0947 147° Southeast  Level Estimated
Sun 01:52:00 PM -14.7364 -53.0187 147° Southeast  Level Estimated
Sun 01:53:00 PM -14.8495 -52.9426 147° Southeast  Level Estimated
Sun 01:54:00 PM -14.9625 -52.8665 147° Southeast  Level Estimated
Sun 01:55:00 PM -15.0755 -52.7902 147° Southeast  Level Estimated
Sun 01:56:00 PM -15.1885 -52.7139 147° Southeast  Level Estimated
Sun 01:57:00 PM -15.3015 -52.6375 147° Southeast  Level Estimated
Sun 01:58:00 PM -15.4145 -52.5610 147° Southeast  Level Estimated
Sun 01:59:00 PM -15.5274 -52.4845 147° Southeast  Level Estimated
Sun 02:00:00 PM -15.6403 -52.4078 147° Southeast  Level Estimated
Sun 02:01:00 PM -15.7531 -52.3311 147° Southeast  Level Estimated
Sun 02:02:00 PM -15.8660 -52.2543 147° Southeast  Level Estimated
Sun 02:03:00 PM -15.9788 -52.1773 147° Southeast  Level Estimated
Sun 02:04:00 PM -16.0916 -52.1003 147° Southeast  Level Estimated
Sun 02:05:00 PM -16.2043 -52.0233 147° Southeast  Level Estimated
Sun 02:06:00 PM -16.3171 -51.9461 147° Southeast  Level Estimated
Sun 02:07:00 PM -16.4298 -51.8688 147° Southeast  Level Estimated
Sun 02:08:00 PM -16.5424 -51.7915 147° Southeast  Level Estimated
Sun 02:09:00 PM -16.6551 -51.7141 147° Southeast  Level Estimated
Sun 02:10:00 PM -16.7677 -51.6365 147° Southeast  Level Estimated
Sun 02:11:00 PM -16.8803 -51.5589 147° Southeast  Level Estimated
Sun 02:12:00 PM -16.9928 -51.4812 147° Southeast  Level Estimated
Sun 02:13:00 PM -17.1054 -51.4034 147° Southeast  Level Estimated
Sun 02:14:00 PM -17.2179 -51.3255 147° Southeast  Level Estimated
Sun 02:15:00 PM -17.3304 -51.2475 146° Southeast  Level Estimated
Sun 02:16:00 PM -17.4428 -51.1694 146° Southeast  Level Estimated
Sun 02:17:00 PM -17.5552 -51.0912 146° Southeast  Level Estimated
Sun 02:18:00 PM -17.6676 -51.0129 146° Southeast  Level Estimated
Sun 02:19:00 PM -17.7799 -50.9345 146° Southeast  Level Estimated
Sun 02:20:00 PM -17.8922 -50.8560 146° Southeast  Level Estimated
Sun 02:21:00 PM -18.0045 -50.7774 146° Southeast  Level Estimated
Sun 02:22:00 PM -18.1168 -50.6988 146° Southeast  Level Estimated
Sun 02:23:00 PM -18.2290 -50.6200 146° Southeast  Level Estimated
Sun 02:24:00 PM -18.3412 -50.5411 146° Southeast  Level Estimated
Sun 02:25:00 PM -18.4533 -50.4621 146° Southeast  Level Estimated
Sun 02:26:00 PM -18.5655 -50.3830 146° Southeast  Level Estimated
Sun 02:27:00 PM -18.6775 -50.3038 146° Southeast  Level Estimated
Sun 02:28:00 PM -18.7896 -50.2245 146° Southeast  Level Estimated
Sun 02:29:00 PM -18.9016 -50.1451 146° Southeast  Level Estimated
Sun 02:30:00 PM -19.0136 -50.0656 146° Southeast  Level Estimated
Sun 02:31:00 PM -19.1256 -49.9860 146° Southeast  Level Estimated
Sun 02:32:00 PM -19.2375 -49.9062 146° Southeast  Level Estimated
Sun 02:33:00 PM -19.3494 -49.8264 146° Southeast  Level Estimated
Sun 02:34:00 PM -19.4612 -49.7464 146° Southeast  Level Estimated
Sun 02:35:00 PM -19.5730 -49.6664 146° Southeast  Level Estimated
Sun 02:36:00 PM -19.6848 -49.5862 146° Southeast  Level Estimated
Sun 02:37:00 PM -19.7966 -49.5059 146° Southeast  Level Estimated
Sun 02:38:00 PM -19.9083 -49.4255 146° Southeast  Level Estimated
Sun 02:39:00 PM -20.0199 -49.3450 146° Southeast  Level Estimated
Sun 02:40:00 PM -20.1316 -49.2644 146° Southeast  Level Estimated
Sun 02:41:00 PM -20.2432 -49.1837 146° Southeast  Level Estimated
Sun 02:42:00 PM -20.3547 -49.1028 146° Southeast  Level Estimated
Sun 02:43:00 PM -20.4663 -49.0219 146° Southeast  Level Estimated
Sun 02:44:00 PM -20.5778 -48.9408 146° Southeast  Level Estimated
Sun 02:45:00 PM -20.6892 -48.8596 146° Southeast  Level Estimated
Sun 02:46:00 PM -20.8006 -48.7782 146° Southeast  Level Estimated
Sun 02:47:00 PM -20.9120 -48.6968 146° Southeast  Level Estimated
Sun 02:48:00 PM -21.0233 -48.6152 146° Southeast  Level Estimated
Sun 02:49:00 PM -21.1346 -48.5335 146° Southeast  Level Estimated
Sun 02:50:00 PM -21.2459 -48.4517 146° Southeast  Level Estimated
Sun 02:51:00 PM -21.3571 -48.3698 146° Southeast  Level Estimated
Sun 02:52:00 PM -21.4683 -48.2877 146° Southeast  Level Estimated
Sun 02:53:00 PM -21.5794 -48.2055 145° Southeast  Level Estimated
Sun 02:54:00 PM -21.6905 -48.1232 145° Southeast  Level Estimated
Sun 02:55:00 PM -21.8016 -48.0408 145° Southeast  Level Estimated
Sun 02:56:00 PM -21.9126 -47.9582 145° Southeast  Level Estimated
Sun 02:57:00 PM -22.0236 -47.8755 145° Southeast  Level Estimated
Sun 02:58:00 PM -22.1345 -47.7927 145° Southeast  Level Estimated
Sun 02:59:00 PM -22.2454 -47.7098 145° Southeast  Level Estimated
Sun 03:00:00 PM -22.3563 -47.6267 145° Southeast  Level Estimated
Sun 03:01:00 PM -22.4671 -47.5434 145° Southeast  Level Estimated
Sun 03:02:00 PM -22.5778 -47.4601 145° Southeast  Level Estimated
Sun 03:03:00 PM -22.6885 -47.3766 145° Southeast  Level Estimated
Sun 03:04:00 PM -22.7992 -47.2930 145° Southeast  Level Estimated
Sun 03:05:00 PM -22.9098 -47.2092 145° Southeast  Level Estimated
Sun 03:06:00 PM -23.0082 -47.1347 145° Southeast  Level Estimated
Sun 03:07:00 PM -23.0082 -47.1347 335° Northwest  Level Estimated
Sun 03:08:00 PM -23.0082 -47.1347 335° Northwest  Level Estimated
Sun 03:09:00 PM -23.0082 -47.1347 335° Northwest  Level Estimated
Sun 03:10:00 PM -23.0082 -47.1347 335° Northwest  Level Estimated
Sun 03:11:00 PM -23.0082 -47.1347 335° Northwest  Level Estimated
Sun 03:12:00 PM -23.0082 -47.1347 335° Northwest  Level Estimated

Login

Don't have an account? Register now (free) for customized features, flight alerts, and more!